Terminal Aerodrome Forecast
Issued by NWS

Home | Current Version | Previous Version | Graphics & Text | Print | Product List | Glossary On
Versions: 1 2 3 4 5 6 7 8 9 10 11 12 13 14 15 16 17 18 19 20 21 22 23 24 25 26 27 28 29 30 31 32 33
000
FTUS43 KLOT 270900 AAA
TAFMDW
TAF AMD
KMDW 270903Z 2709/2806 25003KT 4SM BR FEW005 FEW150
     FM271000 28010KT 3SM BR BCFG SCT005
     FM271300 28010KT P6SM SCT100
     FM271600 29011G16KT P6SM BKN045
     FM271800 30015G26KT P6SM VCSH BKN040 PROB30 2718/2722 5SM -SHRA
     FM280100 32012KT P6SM BKN035=

USA.gov is the U.S. government's official web portal to all federal, state and local government web resources and services.